KCIC/CIC METAR and TAF weather

Enter ICAO airport designator
Station Type Date Time Source
KCIC METAR 2019/08/24 19:55 UTC NOAA

KCIC 241955Z VRB06KT 40SM SKC 31/14 A2990


Station Type Date Time Source
KCIC Decoded METAR 2019/08/24 19:55 UTC NOAA

Station name not available
Aug 24, 2019 - 03:55 PM EDT / 2019.08.24 1955 UTC
Wind: Variable at 7 MPH (6 KT):0
Visibility: 40 mile(s):0
Sky conditions: clear
Temperature: 87 F (31 C)
Dew Point: 57 F (14 C)
Relative Humidity: 35%
Pressure (altimeter): 29.9 in. Hg (1012 hPa)
ob: KCIC 241955Z VRB06KT 40SM SKC 31/14 A2990
cycle: 20

Station Type Date Time Source
KCIC TAF UTC NOAA

Error!

Example: see airport list